createdAt,value
2023-05-17T00:01:04.861Z,14.14
2023-05-17T00:03:32.460Z,13.93
2023-05-17T00:06:00.183Z,13.80
2023-05-17T00:08:27.866Z,13.71
2023-05-17T00:10:55.505Z,13.74
2023-05-17T00:13:23.270Z,13.76
2023-05-17T00:15:50.883Z,13.45
2023-05-17T00:18:18.554Z,13.52
2023-05-17T00:20:46.395Z,13.27
2023-05-17T00:23:14.212Z,13.25
2023-05-17T00:25:41.818Z,12.96
2023-05-17T00:28:09.398Z,12.88
2023-05-17T00:30:37.173Z,12.73
2023-05-17T00:33:04.877Z,12.97
2023-05-17T00:35:32.461Z,12.79
2023-05-17T00:38:00.143Z,12.50
2023-05-17T00:40:27.831Z,12.82
2023-05-17T00:42:56.045Z,12.67
2023-05-17T00:45:23.883Z,12.57
2023-05-17T00:47:51.707Z,12.80
2023-05-17T00:50:19.564Z,12.80
2023-05-17T00:52:47.582Z,12.95
2023-05-17T00:55:15.150Z,12.98
2023-05-17T00:57:43.516Z,12.96
2023-05-17T01:00:11.729Z,12.83
2023-05-17T01:02:39.418Z,12.79
2023-05-17T01:05:07.773Z,12.71
2023-05-17T01:07:36.674Z,12.74
2023-05-17T01:10:04.548Z,12.48
2023-05-17T01:12:55.957Z,12.89
2023-05-17T01:15:32.175Z,12.71
2023-05-17T01:18:24.426Z,12.96
2023-05-17T01:20:56.533Z,12.76
2023-05-17T01:23:49.461Z,12.89
2023-05-17T01:26:21.992Z,12.78
2023-05-17T01:28:53.984Z,12.81
2023-05-17T01:31:23.789Z,12.89
2023-05-17T01:33:51.825Z,12.91
2023-05-17T01:36:20.800Z,12.91
2023-05-17T01:38:48.356Z,13.05
2023-05-17T01:41:29.991Z,13.24
2023-05-17T01:44:19.422Z,13.33
2023-05-17T01:46:55.654Z,13.31
2023-05-17T01:49:31.348Z,13.46
2023-05-17T01:52:09.115Z,13.45
2023-05-17T01:54:40.289Z,13.33
2023-05-17T01:57:09.144Z,13.38
2023-05-17T01:59:39.020Z,13.43
2023-05-17T02:02:09.151Z,13.42
2023-05-17T02:04:37.517Z,13.49
2023-05-17T02:07:05.372Z,13.73
2023-05-17T02:09:33.115Z,13.68
2023-05-17T02:12:00.866Z,13.79
2023-05-17T02:14:28.646Z,13.83
2023-05-17T02:16:57.560Z,13.95
2023-05-17T02:19:25.520Z,14.04
2023-05-17T02:21:53.035Z,14.08
2023-05-17T02:24:20.773Z,14.12
2023-05-17T02:26:49.022Z,14.05
2023-05-17T02:29:16.576Z,14.15
2023-05-17T02:31:44.333Z,14.18
2023-05-17T02:34:11.999Z,14.37
2023-05-17T02:36:41.321Z,14.50
2023-05-17T02:39:08.932Z,14.65
2023-05-17T02:41:36.505Z,14.75
2023-05-17T02:44:04.641Z,14.92
2023-05-17T02:46:32.488Z,15.12
2023-05-17T02:49:00.103Z,15.40
2023-05-17T02:51:27.797Z,15.82
2023-05-17T02:53:55.957Z,16.55
2023-05-17T02:56:23.848Z,17.44
2023-05-17T02:58:51.531Z,18.38
2023-05-17T03:01:19.496Z,19.52
2023-05-17T03:03:47.291Z,20.12
2023-05-17T03:06:15.001Z,21.00
2023-05-17T03:08:42.732Z,21.34
2023-05-17T03:11:10.556Z,21.85
2023-05-17T03:13:38.261Z,22.31
2023-05-17T03:16:06.822Z,22.89
2023-05-17T03:18:34.844Z,23.48
2023-05-17T03:21:02.756Z,23.88
2023-05-17T03:23:30.501Z,24.29
2023-05-17T03:26:00.905Z,24.68
2023-05-17T03:28:31.826Z,25.53
2023-05-17T03:31:00.074Z,26.05
2023-05-17T03:33:31.246Z,26.92
2023-05-17T03:35:59.321Z,27.64
2023-05-17T03:38:27.287Z,28.07
2023-05-17T03:40:55.026Z,28.85
2023-05-17T03:43:23.347Z,29.41
2023-05-17T03:45:51.495Z,29.77
2023-05-17T03:48:19.549Z,30.13
2023-05-17T03:50:47.208Z,30.26
2023-05-17T03:53:14.883Z,30.85
2023-05-17T03:55:42.939Z,31.00
2023-05-17T03:58:10.907Z,31.33
2023-05-17T04:00:40.742Z,31.84
2023-05-17T04:03:14.292Z,32.41
2023-05-17T04:05:42.063Z,32.75
2023-05-17T04:08:10.350Z,32.88
2023-05-17T04:10:42.276Z,33.13
2023-05-17T04:13:10.215Z,33.66
2023-05-17T04:15:39.324Z,33.88
2023-05-17T04:18:08.433Z,34.19
2023-05-17T04:20:36.105Z,34.36
2023-05-17T04:23:03.727Z,34.69
2023-05-17T04:25:35.104Z,34.84
2023-05-17T04:28:04.092Z,35.24
2023-05-17T04:30:32.821Z,35.23
2023-05-17T04:33:01.442Z,35.39
2023-05-17T04:35:29.324Z,35.67
2023-05-17T04:37:57.741Z,35.92
2023-05-17T04:40:26.302Z,36.21
2023-05-17T04:42:54.503Z,36.60
2023-05-17T04:45:22.574Z,36.78
2023-05-17T04:47:51.396Z,37.03
2023-05-17T04:50:20.025Z,37.32
2023-05-17T04:52:47.997Z,37.24
2023-05-17T04:55:15.867Z,37.33
2023-05-17T04:57:44.559Z,37.62
2023-05-17T05:00:16.007Z,37.82
2023-05-17T05:02:48.839Z,37.98
2023-05-17T05:05:16.719Z,38.15
2023-05-17T05:07:46.509Z,38.12
2023-05-17T05:10:14.390Z,38.33
2023-05-17T05:12:42.813Z,38.47
2023-05-17T05:15:11.268Z,38.61
2023-05-17T05:17:41.964Z,38.96
2023-05-17T05:20:10.740Z,38.82
2023-05-17T05:22:39.393Z,38.72
2023-05-17T05:25:08.132Z,38.99
2023-05-17T05:27:36.256Z,39.33
2023-05-17T05:30:04.481Z,39.32
2023-05-17T05:32:35.262Z,39.52
2023-05-17T05:35:03.054Z,39.50
2023-05-17T05:37:31.214Z,39.65
2023-05-17T05:39:59.363Z,39.81
2023-05-17T05:42:28.013Z,39.91
2023-05-17T05:44:55.672Z,40.01
2023-05-17T05:47:24.320Z,40.15
2023-05-17T05:49:52.039Z,40.05
2023-05-17T05:52:19.915Z,39.64
2023-05-17T05:54:47.701Z,39.89
2023-05-17T05:57:15.349Z,40.06
2023-05-17T05:59:43.248Z,40.08
2023-05-17T06:02:11.057Z,40.00
2023-05-17T06:04:45.492Z,40.20
2023-05-17T06:07:16.539Z,40.22
2023-05-17T06:09:44.389Z,40.27
2023-05-17T06:12:14.683Z,40.16
2023-05-17T06:14:42.295Z,40.34
2023-05-17T06:17:09.957Z,40.57
2023-05-17T06:19:37.739Z,40.81
2023-05-17T06:22:05.535Z,41.09
2023-05-17T06:24:33.367Z,41.39
2023-05-17T06:27:01.159Z,41.66
2023-05-17T06:29:28.910Z,41.92
2023-05-17T06:31:57.295Z,41.76
2023-05-17T06:34:24.986Z,41.89
2023-05-17T06:36:53.082Z,41.89
2023-05-17T06:39:20.702Z,41.76
2023-05-17T06:41:48.361Z,41.44
2023-05-17T06:44:18.326Z,41.52
2023-05-17T06:46:45.992Z,41.33
2023-05-17T06:49:13.772Z,41.43
2023-05-17T06:51:41.504Z,41.47
2023-05-17T06:54:09.080Z,41.74
2023-05-17T06:56:36.658Z,41.94
2023-05-17T06:59:07.121Z,42.04
2023-05-17T07:01:35.004Z,41.36
2023-05-17T07:04:02.743Z,40.81
2023-05-17T07:06:31.592Z,40.73
2023-05-17T07:08:59.157Z,40.73
2023-05-17T07:11:26.764Z,40.76
2023-05-17T07:13:54.544Z,40.84
2023-05-17T07:16:22.306Z,40.49
2023-05-17T07:18:50.009Z,40.55
2023-05-17T07:21:17.593Z,40.59
2023-05-17T07:23:45.230Z,40.46
2023-05-17T07:26:12.794Z,39.87
2023-05-17T07:28:40.427Z,39.23
2023-05-17T07:31:08.143Z,38.87
2023-05-17T07:33:36.078Z,38.47
2023-05-17T07:36:04.100Z,38.13
2023-05-17T07:38:31.818Z,37.28
2023-05-17T07:40:59.368Z,36.75
2023-05-17T07:43:27.122Z,36.57
2023-05-17T07:45:54.781Z,36.31
2023-05-17T07:48:22.877Z,36.08
2023-05-17T07:50:50.862Z,35.98
2023-05-17T07:53:18.536Z,35.68
2023-05-17T07:55:49.673Z,34.28
2023-05-17T07:58:17.367Z,33.95
2023-05-17T08:00:45.179Z,33.39
2023-05-17T08:03:14.458Z,33.26
2023-05-17T08:05:43.480Z,32.92
2023-05-17T08:08:11.740Z,32.92
2023-05-17T08:10:39.818Z,32.88
2023-05-17T08:13:07.507Z,32.90
2023-05-17T08:15:35.192Z,32.48
2023-05-17T08:18:04.805Z,31.66
2023-05-17T08:20:32.780Z,31.80
2023-05-17T08:23:00.457Z,31.50
2023-05-17T08:25:28.878Z,31.52
2023-05-17T08:27:56.791Z,31.12
2023-05-17T08:32:56.933Z,29.98
2023-05-17T08:35:28.598Z,30.02
2023-05-17T08:37:56.822Z,29.84
2023-05-17T08:40:24.699Z,29.82
2023-05-17T08:42:53.616Z,29.56
2023-05-17T08:45:22.550Z,29.36
2023-05-17T08:47:51.548Z,29.77
2023-05-17T08:50:19.330Z,29.36
2023-05-17T08:52:47.249Z,29.05
2023-05-17T08:55:16.791Z,28.81
2023-05-17T08:57:46.288Z,29.00
2023-05-17T09:00:19.859Z,29.16
2023-05-17T09:02:49.002Z,28.15
2023-05-17T09:05:18.305Z,28.01
2023-05-17T09:07:46.903Z,28.16
2023-05-17T09:10:14.550Z,27.46
2023-05-17T09:12:42.714Z,27.28
2023-05-17T09:15:23.220Z,27.62
2023-05-17T09:17:55.381Z,27.63
2023-05-17T09:20:37.103Z,27.75
2023-05-17T09:23:05.032Z,27.44
2023-05-17T09:25:33.345Z,27.29
2023-05-17T09:28:03.160Z,27.17
2023-05-17T09:30:32.625Z,27.28
2023-05-17T09:33:08.718Z,27.39
2023-05-17T09:35:37.638Z,26.93
2023-05-17T09:38:13.257Z,27.02
2023-05-17T09:40:42.969Z,26.70
2023-05-17T09:43:12.506Z,26.29
2023-05-17T09:45:40.658Z,26.10
2023-05-17T09:48:17.686Z,26.06
2023-05-17T09:50:50.094Z,25.71
2023-05-17T09:53:29.344Z,26.22
2023-05-17T09:56:00.168Z,26.06
2023-05-17T09:58:29.393Z,26.20
2023-05-17T10:01:02.464Z,26.33
2023-05-17T10:03:36.490Z,26.24
2023-05-17T10:06:07.692Z,26.03
2023-05-17T10:08:36.931Z,25.98
2023-05-17T10:11:11.397Z,25.92
2023-05-17T10:13:54.857Z,26.07
2023-05-17T10:16:23.840Z,25.34
2023-05-17T10:18:51.899Z,25.14
2023-05-17T10:21:20.338Z,24.92
2023-05-17T10:23:48.771Z,24.83
2023-05-17T10:26:16.650Z,24.83
2023-05-17T10:28:46.839Z,24.92
2023-05-17T10:31:16.018Z,24.99
2023-05-17T10:33:45.840Z,24.87
2023-05-17T10:36:18.508Z,24.88
2023-05-17T10:38:46.481Z,24.64
2023-05-17T10:41:15.719Z,24.21
2023-05-17T10:43:44.236Z,24.31
2023-05-17T10:46:21.668Z,24.62
2023-05-17T10:48:52.450Z,24.57
2023-05-17T10:51:25.142Z,24.33
2023-05-17T10:54:14.469Z,24.70
2023-05-17T10:56:47.470Z,24.37
2023-05-17T10:59:18.949Z,24.23
2023-05-17T11:02:09.109Z,24.18
2023-05-17T11:04:39.282Z,23.85
2023-05-17T11:07:29.795Z,24.14
2023-05-17T11:10:00.799Z,23.97
2023-05-17T11:12:36.575Z,23.93
2023-05-17T11:15:08.457Z,23.61
2023-05-17T11:17:44.411Z,23.11
2023-05-17T11:20:16.902Z,23.27
2023-05-17T11:23:00.203Z,23.56
2023-05-17T11:25:36.401Z,23.32
2023-05-17T11:28:22.775Z,23.31
2023-05-17T11:30:54.196Z,22.88
2023-05-17T11:33:45.058Z,22.99
2023-05-17T11:36:20.239Z,23.11
2023-05-17T11:39:10.045Z,23.09
2023-05-17T11:41:42.072Z,23.13
2023-05-17T11:44:10.387Z,22.98
2023-05-17T11:46:39.387Z,23.05
2023-05-17T11:49:08.408Z,23.06
2023-05-17T11:51:36.304Z,22.98
2023-05-17T11:54:06.732Z,23.04
2023-05-17T11:56:43.429Z,23.04
2023-05-17T11:59:11.927Z,23.04
2023-05-17T12:01:46.816Z,23.11
2023-05-17T12:04:15.108Z,22.92
2023-05-17T12:06:45.387Z,22.72
2023-05-17T12:09:18.037Z,22.35
2023-05-17T12:11:46.500Z,22.33
2023-05-17T12:14:18.461Z,22.60
2023-05-17T12:16:52.555Z,22.65
2023-05-17T12:19:22.783Z,22.11
2023-05-17T12:21:51.381Z,21.73
2023-05-17T12:24:19.409Z,22.00
2023-05-17T12:26:47.824Z,22.35
2023-05-17T12:29:19.646Z,22.37
2023-05-17T12:31:53.361Z,22.48
2023-05-17T12:34:22.461Z,22.36
2023-05-17T12:36:50.845Z,22.30
2023-05-17T12:39:24.075Z,22.07
2023-05-17T12:41:52.662Z,22.47
2023-05-17T12:44:21.095Z,21.94
2023-05-17T12:46:54.317Z,21.73
2023-05-17T12:49:22.480Z,21.71
2023-05-17T12:51:50.581Z,21.93
2023-05-17T12:54:36.580Z,22.19
2023-05-17T12:57:16.311Z,21.56
2023-05-17T12:59:49.325Z,20.93
2023-05-17T13:02:17.769Z,20.32
2023-05-17T13:04:46.844Z,20.16
2023-05-17T13:07:23.228Z,20.18
2023-05-17T13:09:51.072Z,19.75
2023-05-17T13:12:25.110Z,19.92
2023-05-17T13:14:53.866Z,19.70
2023-05-17T13:17:27.463Z,19.63
2023-05-17T13:19:58.175Z,19.61
2023-05-17T13:22:26.857Z,19.72
2023-05-17T13:24:55.434Z,19.65
2023-05-17T13:27:23.253Z,19.63
2023-05-17T13:29:51.115Z,19.50
2023-05-17T13:32:19.629Z,19.52
2023-05-17T13:34:47.328Z,19.69
2023-05-17T13:37:15.038Z,19.80
2023-05-17T13:39:42.620Z,19.89
2023-05-17T13:42:11.471Z,19.80
2023-05-17T13:44:39.737Z,19.48
2023-05-17T13:47:07.799Z,19.38
2023-05-17T13:49:35.857Z,19.50
2023-05-17T13:52:03.983Z,19.69
2023-05-17T13:54:31.843Z,19.48
2023-05-17T13:56:59.682Z,20.02
2023-05-17T13:59:27.351Z,20.00
2023-05-17T14:01:54.905Z,19.46
2023-05-17T14:04:22.922Z,19.12
2023-05-17T14:06:54.899Z,19.25
2023-05-17T14:09:22.935Z,19.39
2023-05-17T14:11:50.849Z,19.33
2023-05-17T14:14:18.504Z,19.24
2023-05-17T14:16:46.222Z,19.21
2023-05-17T14:19:13.903Z,19.37
2023-05-17T14:21:41.700Z,19.45
2023-05-17T14:24:09.302Z,19.45
2023-05-17T14:26:37.572Z,19.80
2023-05-17T14:29:06.616Z,19.92
2023-05-17T14:31:34.272Z,19.94
2023-05-17T14:34:03.475Z,20.06
2023-05-17T14:36:32.105Z,19.97
2023-05-17T14:38:59.689Z,19.96
2023-05-17T14:41:27.452Z,20.01
2023-05-17T14:43:54.998Z,19.90
2023-05-17T14:46:24.340Z,19.67
2023-05-17T14:48:52.770Z,19.40
2023-05-17T14:51:20.469Z,19.51
2023-05-17T14:53:48.326Z,19.45
2023-05-17T14:56:17.081Z,19.41
2023-05-17T14:58:44.719Z,19.59
2023-05-17T15:01:12.483Z,19.55
2023-05-17T15:03:40.157Z,19.45
2023-05-17T15:06:10.948Z,19.32
2023-05-17T15:08:39.713Z,19.30
2023-05-17T15:11:07.609Z,19.28
2023-05-17T15:13:35.222Z,19.27
2023-05-17T15:16:03.646Z,18.97
2023-05-17T15:18:31.655Z,19.07
2023-05-17T15:20:59.263Z,19.06
2023-05-17T15:23:27.258Z,18.94
2023-05-17T15:25:54.948Z,18.63
2023-05-17T15:28:24.114Z,18.80
2023-05-17T15:31:01.200Z,18.67
2023-05-17T15:33:29.217Z,18.57
2023-05-17T15:35:57.075Z,18.62
2023-05-17T15:38:24.931Z,18.60
2023-05-17T15:41:04.561Z,18.79
2023-05-17T15:43:34.041Z,18.75
2023-05-17T15:46:01.727Z,18.61
2023-05-17T15:48:29.875Z,18.56
2023-05-17T15:50:57.898Z,18.67
2023-05-17T15:53:26.612Z,18.50
2023-05-17T15:55:54.261Z,18.38
2023-05-17T15:58:23.761Z,18.34
2023-05-17T16:00:51.711Z,18.26
2023-05-17T16:03:22.042Z,18.27
2023-05-17T16:05:49.796Z,18.22
2023-05-17T16:08:17.680Z,17.98
2023-05-17T16:10:45.276Z,17.91
2023-05-17T16:13:13.031Z,17.86
2023-05-17T16:15:40.857Z,17.85
2023-05-17T16:18:10.988Z,17.91
2023-05-17T16:20:38.583Z,17.80
2023-05-17T16:23:06.605Z,17.59
2023-05-17T16:25:34.649Z,17.63
2023-05-17T16:28:04.990Z,17.76
2023-05-17T16:30:32.902Z,17.74
2023-05-17T16:33:00.860Z,17.61
2023-05-17T16:35:29.132Z,17.72
2023-05-17T16:37:56.904Z,17.90
2023-05-17T16:40:24.553Z,17.79
2023-05-17T16:42:52.063Z,17.77
2023-05-17T16:45:19.735Z,17.78
2023-05-17T16:47:47.397Z,17.78
2023-05-17T16:50:14.998Z,17.63
2023-05-17T16:52:42.672Z,17.60
2023-05-17T16:55:10.705Z,17.48
2023-05-17T16:57:38.201Z,17.49
2023-05-17T17:00:06.397Z,17.28
2023-05-17T17:02:36.291Z,17.30
2023-05-17T17:05:05.081Z,17.27
2023-05-17T17:07:32.851Z,17.40
2023-05-17T17:10:00.578Z,17.30
2023-05-17T17:12:28.282Z,17.51
2023-05-17T17:14:56.290Z,17.44
2023-05-17T17:17:23.981Z,17.40
2023-05-17T17:19:51.629Z,17.45
2023-05-17T17:22:19.308Z,17.49
2023-05-17T17:24:46.877Z,17.45
2023-05-17T17:27:14.542Z,17.21
2023-05-17T17:29:42.424Z,17.21
2023-05-17T17:32:10.073Z,17.16
2023-05-17T17:34:37.685Z,16.98
2023-05-17T17:37:05.480Z,16.95
2023-05-17T17:39:33.043Z,16.95
2023-05-17T17:42:01.818Z,16.78
2023-05-17T17:44:29.632Z,16.86
2023-05-17T17:46:57.191Z,16.83
2023-05-17T17:49:24.907Z,16.87
2023-05-17T17:51:52.909Z,16.65
2023-05-17T17:54:21.592Z,16.40
2023-05-17T17:56:49.934Z,16.42
2023-05-17T17:59:17.596Z,16.22
2023-05-17T18:01:45.507Z,16.26
2023-05-17T18:04:14.906Z,16.15
2023-05-17T18:06:46.037Z,15.96
2023-05-17T18:09:13.749Z,15.91
2023-05-17T18:11:41.295Z,15.89
2023-05-17T18:14:08.994Z,15.65
2023-05-17T18:16:36.858Z,15.87
2023-05-17T18:19:04.643Z,15.65
2023-05-17T18:21:32.418Z,15.49
2023-05-17T18:24:00.927Z,15.49
2023-05-17T18:26:28.648Z,15.42
2023-05-17T18:28:56.350Z,15.42
2023-05-17T18:31:23.928Z,15.30
2023-05-17T18:33:51.584Z,15.22
2023-05-17T18:36:19.477Z,15.18
2023-05-17T18:38:47.146Z,15.00
2023-05-17T18:41:14.810Z,14.88
2023-05-17T18:43:42.856Z,14.83
2023-05-17T18:46:10.685Z,14.81
2023-05-17T18:48:39.377Z,14.79
2023-05-17T18:51:07.232Z,14.65
2023-05-17T18:53:36.416Z,14.36
2023-05-17T18:56:04.159Z,14.37
2023-05-17T18:58:31.786Z,14.25
2023-05-17T19:01:00.503Z,14.29
2023-05-17T19:03:28.332Z,14.45
2023-05-17T19:05:56.082Z,14.31
2023-05-17T19:08:23.859Z,14.38
2023-05-17T19:10:51.543Z,14.60
2023-05-17T19:13:19.125Z,14.35
2023-05-17T19:15:46.886Z,14.32
2023-05-17T19:18:14.738Z,14.52
2023-05-17T19:20:42.532Z,14.55
2023-05-17T19:23:10.578Z,14.37
2023-05-17T19:25:38.146Z,14.42
2023-05-17T19:28:05.900Z,14.11
2023-05-17T19:30:33.658Z,14.05
2023-05-17T19:33:01.858Z,13.96
2023-05-17T19:35:29.770Z,13.88
2023-05-17T19:37:57.775Z,13.81
2023-05-17T19:40:25.458Z,13.76
2023-05-17T19:42:53.011Z,13.86
2023-05-17T19:45:20.773Z,13.79
2023-05-17T19:47:48.424Z,13.31
2023-05-17T19:50:17.130Z,13.18
2023-05-17T19:52:44.696Z,13.11
2023-05-17T19:55:16.256Z,13.40
2023-05-17T19:57:43.930Z,13.44
2023-05-17T20:00:11.890Z,13.47
2023-05-17T20:02:40.849Z,13.32
2023-05-17T20:05:08.966Z,13.26
2023-05-17T20:07:38.304Z,13.51
2023-05-17T20:10:06.787Z,13.26
2023-05-17T20:12:34.425Z,12.75
2023-05-17T20:15:02.321Z,12.68
2023-05-17T20:17:32.577Z,12.57
2023-05-17T20:20:00.394Z,12.58
2023-05-17T20:22:27.973Z,12.69
2023-05-17T20:24:57.757Z,12.50
2023-05-17T20:27:26.654Z,12.46
2023-05-17T20:29:54.328Z,12.31
2023-05-17T20:32:21.955Z,12.50
2023-05-17T20:34:49.602Z,12.70
2023-05-17T20:37:17.226Z,12.58
2023-05-17T20:39:44.998Z,12.45
2023-05-17T20:42:18.109Z,12.22
2023-05-17T20:44:46.191Z,12.44
2023-05-17T20:47:13.972Z,12.39
2023-05-17T20:49:41.586Z,12.13
2023-05-17T20:52:09.431Z,12.08
2023-05-17T20:54:37.453Z,11.98
2023-05-17T20:57:06.869Z,12.04
2023-05-17T20:59:34.736Z,12.14
2023-05-17T21:02:04.216Z,12.23
2023-05-17T21:04:32.020Z,12.47
2023-05-17T21:06:59.683Z,12.51
2023-05-17T21:09:27.258Z,12.66
2023-05-17T21:11:55.042Z,12.64
2023-05-17T21:14:22.644Z,12.68
2023-05-17T21:16:50.278Z,12.75
2023-05-17T21:19:17.967Z,12.72
2023-05-17T21:21:45.740Z,12.76
2023-05-17T21:24:13.442Z,12.77
2023-05-17T21:26:41.395Z,12.78
2023-05-17T21:29:09.096Z,12.71
2023-05-17T21:31:36.905Z,12.79
2023-05-17T21:34:04.538Z,12.71
2023-05-17T21:36:32.155Z,12.60
2023-05-17T21:38:59.809Z,12.45
2023-05-17T21:41:27.469Z,12.24
2023-05-17T21:43:55.137Z,12.21
2023-05-17T21:46:22.767Z,12.34
2023-05-17T21:48:50.382Z,12.43
2023-05-17T21:51:18.065Z,12.46
2023-05-17T21:53:45.819Z,12.43
2023-05-17T21:56:13.481Z,12.44
2023-05-17T21:58:41.159Z,12.47
2023-05-17T22:01:09.002Z,12.55
2023-05-17T22:03:36.744Z,12.54
2023-05-17T22:06:04.725Z,12.60
2023-05-17T22:08:32.414Z,12.51
2023-05-17T22:11:00.022Z,12.43
2023-05-17T22:13:27.822Z,12.41
2023-05-17T22:15:57.944Z,12.41
2023-05-17T22:18:27.544Z,12.34
2023-05-17T22:20:55.494Z,12.33
2023-05-17T22:23:23.306Z,12.32
2023-05-17T22:25:51.030Z,12.38
2023-05-17T22:28:18.991Z,12.38
2023-05-17T22:30:46.836Z,12.31
2023-05-17T22:33:14.894Z,12.20
2023-05-17T22:35:42.581Z,12.07
2023-05-17T22:38:10.278Z,12.01
2023-05-17T22:40:37.803Z,11.43
2023-05-17T22:43:08.488Z,11.34
2023-05-17T22:45:36.097Z,11.30
2023-05-17T22:48:05.999Z,11.36
2023-05-17T22:50:33.761Z,11.31
2023-05-17T22:53:01.559Z,11.08
2023-05-17T22:55:29.647Z,11.03
2023-05-17T22:57:57.815Z,11.21
2023-05-17T23:00:26.505Z,11.34
2023-05-17T23:02:54.326Z,11.37
2023-05-17T23:05:22.529Z,11.52
2023-05-17T23:07:50.121Z,11.54
2023-05-17T23:10:17.839Z,11.56
2023-05-17T23:12:45.502Z,11.41
2023-05-17T23:15:13.180Z,11.31
2023-05-17T23:17:42.131Z,11.36
2023-05-17T23:20:10.697Z,11.40
2023-05-17T23:22:39.214Z,11.47
2023-05-17T23:25:07.244Z,11.49
2023-05-17T23:27:35.734Z,11.51
2023-05-17T23:30:04.855Z,11.50
2023-05-17T23:32:35.259Z,11.46
2023-05-17T23:35:05.860Z,11.47
2023-05-17T23:37:37.200Z,11.42
2023-05-17T23:40:06.088Z,11.29
2023-05-17T23:42:33.949Z,11.30
2023-05-17T23:45:02.785Z,11.16
2023-05-17T23:47:34.882Z,11.19
2023-05-17T23:50:03.615Z,11.22
2023-05-17T23:52:33.343Z,10.99
2023-05-17T23:55:02.432Z,10.90
2023-05-17T23:57:32.112Z,10.97
2023-05-17T23:59:59.902Z,11.10
